Terminal Aerodrome Forecast
Issued by NWS Brownsville, TX

Home | Current Version | Previous Version | Text Only | Print | Product List | Glossary On
Versions: 1 2 3 4 5 6 7 8 9 10 11 12 13 14 15 16 17 18 19 20
436
FTUS44 KBRO 111136
TAFBRO
TAF
KBRO 111136Z 1112/1212 18004KT P6SM OVC008
      TEMPO 1112/1115 5SM BR
     FM111500 18011KT P6SM OVC025
     FM111800 17020G26KT P6SM BKN035
      TEMPO 1120/1124 SCT035
     FM120000 16008KT P6SM SCT035
     FM120600 16006KT 5SM BR OVC008
      TEMPO 1209/1212 2SM BR OVC004=

USA.gov is the U.S. government's official web portal to all federal, state and local government web resources and services.